Sapello, NM

9:41 PM MDT on August 22, 2014 (GMT -0600)
Taos Municipal | Change Station
CLOSE
Current Station
Airport
Location: Taos,
Elevation: 7090 ft
Nearby Weather Stations

Elev 7090 ft 36.46 °N, 105.67 °W | Updated 6 minutes ago

Clear
Clear
54 °F
Feels Like 54 °F
N
5
Wind Variable Wind from ENE

Today
High -- | Low -- °F
--% Chance of Precip.
Yesterday
High -- | Low -- °F
Precip. -- in
6:25 AM 7:41 PM
Waning Crescent, 5% visible
Pressure 30.26 in
Visibility 10.0 miles
Clouds Clear
Dew Point 46 °F
Humidity 77%
Rainfall 0.27 in
Snow Depth 1 in
UV 0 out of 12
Pollen 6.70 out of 12
Air Quality Not available.
Flu Activity Not available.
METAR KSKX 230335Z AUTO 07004KT 10SM CLR 12/08 A3026 RMK AO1

More Conditions Fewer Conditions

Pressure 30.26 in
Visibility 10.0 miles
Clouds Clear
Dew Point 46 °F
Humidity 77%
Rainfall 0.27 in
Snow Depth 1 in
UV 0 out of 12
Pollen 6.70 out of 12
Air Quality Not available.
Flu Activity Not available.
METAR KSKX 230335Z AUTO 07004KT 10SM CLR 12/08 A3026 RMK AO1

More Conditions Fewer Conditions

10-Day Weather Forecast

Almanac

Astronomy

Aug. 22, 2014 Rise Set
Actual Time 6:25 AM MDT 7:41 PM MDT
Civil Twilight 5:58 AM MDT 8:08 PM MDT
Nautical Twilight 5:26 AM MDT 8:40 PM MDT
Astronomical Twilight 4:53 AM MDT 9:13 PM MDT
Moon 3:52 AM MDT (8/22) 5:50 PM MDT (8/22)
Length of Visible Light 14h 09m
Length of Day
13h 16m
Tomorrow will be 2m 5s shorter.
Waning Crescent, 5% of the Moon is Illuminated
Today
Waning Crescent
Aug 25
New
Sep 2
First Quarter
Sep 8
Full
Sep 15
Last Quarter

Today's Extremes

State Highs State Lows

Community

WunderPhotos

Upload Photos

1,746,352 photos uploaded!

WunderBlogs® & News

Nearby

Snow Depth

Station Depth Elevation
Wesner Springs 1 in 11120 ft
Santa Fe 1 in 11445 ft
Gallegos Peak 0 in 9800 ft
Tolby 0 in 10180 ft
Quemazon 1 in 9500 ft

Earthquake Activity

City Distance Mag. Time & Date
No recent earthquake activity has been reported nearby.
Minimum magnitude displayed is 2.5.

Coastal Water Temperatures

Place Temperature
No Stations Reporting

Nearby Weather Stations